sensor_id;sensor_type;location;lat;lon;timestamp;P1;durP1;ratioP1;P2;durP2;ratioP2
78670;SDS011;68277;52.724;6.516;2023-02-28T16:20:15;971.05;;;913.20;;
78670;SDS011;68277;52.724;6.516;2023-02-28T16:22:52;866.30;;;815.10;;
78670;SDS011;68277;52.724;6.516;2023-02-28T16:25:20;860.60;;;810.22;;
78670;SDS011;68277;52.724;6.516;2023-02-28T16:27:49;869.08;;;817.60;;
78670;SDS011;68277;52.724;6.516;2023-02-28T16:30:26;867.17;;;816.08;;
78670;SDS011;68277;52.724;6.516;2023-02-28T16:32:54;862.15;;;811.20;;
78670;SDS011;68277;52.724;6.516;2023-02-28T16:35:21;860.92;;;811.13;;
78670;SDS011;68277;52.724;6.516;2023-02-28T16:37:47;857.90;;;808.10;;
78670;SDS011;68277;52.724;6.516;2023-02-28T16:40:13;867.13;;;817.63;;
78670;SDS011;68277;52.724;6.516;2023-02-28T16:42:40;850.30;;;800.92;;
78670;SDS011;68277;52.724;6.516;2023-02-28T16:45:10;866.35;;;816.35;;
78670;SDS011;68277;52.724;6.516;2023-02-28T16:47:41;844.50;;;795.80;;
78670;SDS011;68277;52.724;6.516;2023-02-28T16:50:17;850.83;;;802.08;;
78670;SDS011;68277;52.724;6.516;2023-02-28T16:52:44;839.03;;;791.05;;
78670;SDS011;68277;52.724;6.516;2023-02-28T16:55:10;857.80;;;808.05;;
78670;SDS011;68277;52.724;6.516;2023-02-28T16:57:36;863.33;;;813.45;;
78670;SDS011;68277;52.724;6.516;2023-02-28T17:00:02;840.70;;;792.70;;
78670;SDS011;68277;52.724;6.516;2023-02-28T17:02:30;857.20;;;808.03;;
78670;SDS011;68277;52.724;6.516;2023-02-28T17:04:55;841.53;;;793.83;;
78670;SDS011;68277;52.724;6.516;2023-02-28T17:07:20;853.63;;;805.67;;
78670;SDS011;68277;52.724;6.516;2023-02-28T17:09:49;833.88;;;786.80;;
78670;SDS011;68277;52.724;6.516;2023-02-28T17:12:14;841.53;;;794.45;;
78670;SDS011;68277;52.724;6.516;2023-02-28T17:14:40;835.95;;;789.03;;
78670;SDS011;68277;52.724;6.516;2023-02-28T17:17:05;852.45;;;803.75;;
78670;SDS011;68277;52.724;6.516;2023-02-28T17:19:32;849.88;;;801.70;;
78670;SDS011;68277;52.724;6.516;2023-02-28T17:21:58;855.05;;;806.13;;
78670;SDS011;68277;52.724;6.516;2023-02-28T17:24:24;850.15;;;801.70;;
78670;SDS011;68277;52.724;6.516;2023-02-28T17:26:49;839.22;;;792.10;;
78670;SDS011;68277;52.724;6.516;2023-02-28T17:29:16;837.85;;;791.20;;
78670;SDS011;68277;52.724;6.516;2023-02-28T17:31:44;860.70;;;812.15;;
78670;SDS011;68277;52.724;6.516;2023-02-28T17:34:09;828.70;;;781.72;;
78670;SDS011;68277;52.724;6.516;2023-02-28T17:36:35;818.15;;;772.38;;
78670;SDS011;68277;52.724;6.516;2023-02-28T17:39:02;849.90;;;801.80;;
78670;SDS011;68277;52.724;6.516;2023-02-28T17:41:34;821.47;;;775.38;;
78670;SDS011;68277;52.724;6.516;2023-02-28T17:43:59;836.05;;;789.55;;
78670;SDS011;68277;52.724;6.516;2023-02-28T17:46:25;847.95;;;800.75;;
78670;SDS011;68277;52.724;6.516;2023-02-28T17:48:53;822.55;;;776.40;;
78670;SDS011;68277;52.724;6.516;2023-02-28T17:51:20;835.05;;;788.95;;
78670;SDS011;68277;52.724;6.516;2023-02-28T17:53:49;835.22;;;788.90;;
78670;SDS011;68277;52.724;6.516;2023-02-28T17:56:16;828.67;;;782.70;;
78670;SDS011;68277;52.724;6.516;2023-02-28T18:01:41;861.87;;;814.47;;
78670;SDS011;68277;52.724;6.516;2023-02-28T18:04:07;847.10;;;801.35;;
78670;SDS011;68277;52.724;6.516;2023-02-28T18:19:23;882.70;;;829.95;;
78670;SDS011;68277;52.724;6.516;2023-02-28T18:21:51;860.15;;;809.20;;
78670;SDS011;68277;52.724;6.516;2023-02-28T18:25:32;849.90;;;800.53;;
78670;SDS011;68277;52.724;6.516;2023-02-28T18:27:57;846.90;;;798.25;;
78670;SDS011;68277;52.724;6.516;2023-02-28T18:30:31;832.75;;;786.40;;
78670;SDS011;68277;52.724;6.516;2023-02-28T18:33:00;826.58;;;780.83;;
78670;SDS011;68277;52.724;6.516;2023-02-28T18:36:56;966.78;;;909.47;;
78670;SDS011;68277;52.724;6.516;2023-02-28T18:40:20;862.20;;;812.67;;
78670;SDS011;68277;52.724;6.516;2023-02-28T18:44:55;823.90;;;780.28;;
78670;SDS011;68277;52.724;6.516;2023-02-28T18:47:21;806.13;;;762.50;;
78670;SDS011;68277;52.724;6.516;2023-02-28T18:49:46;833.92;;;789.10;;
78670;SDS011;68277;52.724;6.516;2023-02-28T18:52:12;833.03;;;787.83;;
78670;SDS011;68277;52.724;6.516;2023-02-28T18:54:37;830.40;;;785.95;;
78670;SDS011;68277;52.724;6.516;2023-02-28T18:57:03;812.63;;;769.38;;
78670;SDS011;68277;52.724;6.516;2023-02-28T18:59:31;824.13;;;780.28;;
78670;SDS011;68277;52.724;6.516;2023-02-28T19:01:57;823.30;;;779.60;;
78670;SDS011;68277;52.724;6.516;2023-02-28T19:04:23;822.15;;;778.53;;
78670;SDS011;68277;52.724;6.516;2023-02-28T19:06:48;806.83;;;764.28;;
78670;SDS011;68277;52.724;6.516;2023-02-28T19:09:14;809.10;;;766.10;;
78670;SDS011;68277;52.724;6.516;2023-02-28T19:11:40;791.67;;;749.53;;
78670;SDS011;68277;52.724;6.516;2023-02-28T19:14:05;815.13;;;772.20;;
78670;SDS011;68277;52.724;6.516;2023-02-28T19:16:33;805.33;;;762.70;;
78670;SDS011;68277;52.724;6.516;2023-02-28T19:18:59;809.83;;;767.03;;
78670;SDS011;68277;52.724;6.516;2023-02-28T19:21:24;817.53;;;775.03;;
78670;SDS011;68277;52.724;6.516;2023-02-28T19:23:50;807.55;;;765.65;;
78670;SDS011;68277;52.724;6.516;2023-02-28T19:26:17;808.92;;;766.95;;
78670;SDS011;68277;52.724;6.516;2023-02-28T19:28:44;785.88;;;745.38;;
78670;SDS011;68277;52.724;6.516;2023-02-28T19:31:13;810.08;;;767.97;;
78670;SDS011;68277;52.724;6.516;2023-02-28T19:33:41;797.25;;;756.63;;
78670;SDS011;68277;52.724;6.516;2023-02-28T19:36:07;804.47;;;763.03;;
78670;SDS011;68277;52.724;6.516;2023-02-28T19:38:36;775.50;;;735.45;;
78670;SDS011;68277;52.724;6.516;2023-02-28T19:41:04;779.92;;;739.67;;
78670;SDS011;68277;52.724;6.516;2023-02-28T19:43:38;786.22;;;746.25;;
78670;SDS011;68277;52.724;6.516;2023-02-28T20:19:47;740.55;;;702.47;;
78670;SDS011;68277;52.724;6.516;2023-02-28T20:22:14;776.88;;;737.92;;
78670;SDS011;68277;52.724;6.516;2023-02-28T20:24:40;747.50;;;709.75;;
78670;SDS011;68277;52.724;6.516;2023-02-28T20:27:05;783.17;;;743.83;;
78670;SDS011;68277;52.724;6.516;2023-02-28T20:29:32;743.47;;;705.85;;
78670;SDS011;68277;52.724;6.516;2023-02-28T20:31:58;770.00;;;731.50;;
78670;SDS011;68277;52.724;6.516;2023-02-28T20:34:23;747.00;;;709.05;;
78670;SDS011;68277;52.724;6.516;2023-02-28T20:36:52;765.25;;;726.75;;
78670;SDS011;68277;52.724;6.516;2023-02-28T20:39:18;757.15;;;719.38;;
78670;SDS011;68277;52.724;6.516;2023-02-28T20:41:46;727.28;;;690.33;;
78670;SDS011;68277;52.724;6.516;2023-02-28T20:44:17;748.75;;;711.50;;
78670;SDS011;68277;52.724;6.516;2023-02-28T20:46:43;770.92;;;732.47;;
78670;SDS011;68277;52.724;6.516;2023-02-28T20:49:09;761.70;;;723.25;;
78670;SDS011;68277;52.724;6.516;2023-02-28T20:51:39;761.65;;;723.25;;
78670;SDS011;68277;52.724;6.516;2023-02-28T20:54:06;764.90;;;726.40;;
78670;SDS011;68277;52.724;6.516;2023-02-28T20:56:32;734.67;;;697.67;;
78670;SDS011;68277;52.724;6.516;2023-02-28T20:58:58;755.65;;;717.75;;
78670;SDS011;68277;52.724;6.516;2023-02-28T21:01:25;743.20;;;706.28;;
78670;SDS011;68277;52.724;6.516;2023-02-28T21:03:53;736.80;;;700.25;;
78670;SDS011;68277;52.724;6.516;2023-02-28T21:06:21;751.80;;;714.65;;
78670;SDS011;68277;52.724;6.516;2023-02-28T21:08:49;740.63;;;703.63;;
78670;SDS011;68277;52.724;6.516;2023-02-28T21:11:16;750.42;;;713.15;;
78670;SDS011;68277;52.724;6.516;2023-02-28T21:13:46;747.50;;;710.58;;
78670;SDS011;68277;52.724;6.516;2023-02-28T21:16:13;742.33;;;705.35;;
78670;SDS011;68277;52.724;6.516;2023-02-28T21:18:41;721.08;;;684.95;;
78670;SDS011;68277;52.724;6.516;2023-02-28T21:21:09;720.88;;;685.03;;
78670;SDS011;68277;52.724;6.516;2023-02-28T21:23:39;743.45;;;706.63;;
78670;SDS011;68277;52.724;6.516;2023-02-28T21:26:06;709.65;;;674.35;;
78670;SDS011;68277;52.724;6.516;2023-02-28T21:28:33;723.22;;;687.42;;
78670;SDS011;68277;52.724;6.516;2023-02-28T21:31:03;741.75;;;705.22;;
78670;SDS011;68277;52.724;6.516;2023-02-28T21:33:33;740.25;;;703.92;;
78670;SDS011;68277;52.724;6.516;2023-02-28T21:36:03;754.58;;;717.80;;
78670;SDS011;68277;52.724;6.516;2023-02-28T21:38:31;708.42;;;673.15;;
78670;SDS011;68277;52.724;6.516;2023-02-28T21:43:29;691.45;;;656.80;;
78670;SDS011;68277;52.724;6.516;2023-02-28T21:45:54;708.75;;;673.47;;
78670;SDS011;68277;52.724;6.516;2023-02-28T21:48:20;739.60;;;703.63;;
78670;SDS011;68277;52.724;6.516;2023-02-28T21:50:58;711.83;;;676.47;;
78670;SDS011;68277;52.724;6.516;2023-02-28T21:53:31;751.58;;;715.25;;
78670;SDS011;68277;52.724;6.516;2023-02-28T21:55:59;724.38;;;688.75;;
78670;SDS011;68277;52.724;6.516;2023-02-28T21:58:25;729.08;;;693.25;;
78670;SDS011;68277;52.724;6.516;2023-02-28T22:01:25;728.92;;;693.40;;
78670;SDS011;68277;52.724;6.516;2023-02-28T22:03:44;733.80;;;698.55;;
78670;SDS011;68277;52.724;6.516;2023-02-28T22:06:12;724.67;;;689.28;;
78670;SDS011;68277;52.724;6.516;2023-02-28T22:08:39;733.60;;;698.13;;
78670;SDS011;68277;52.724;6.516;2023-02-28T22:11:05;734.80;;;699.38;;
78670;SDS011;68277;52.724;6.516;2023-02-28T22:13:35;731.85;;;696.63;;
78670;SDS011;68277;52.724;6.516;2023-02-28T22:16:02;711.33;;;676.40;;
78670;SDS011;68277;52.724;6.516;2023-02-28T22:18:29;724.60;;;689.10;;
78670;SDS011;68277;52.724;6.516;2023-02-28T22:20:54;679.53;;;645.70;;
78670;SDS011;68277;52.724;6.516;2023-02-28T22:23:20;725.38;;;689.55;;
78670;SDS011;68277;52.724;6.516;2023-02-28T22:25:47;718.25;;;683.30;;
78670;SDS011;68277;52.724;6.516;2023-02-28T22:28:12;716.80;;;681.67;;
78670;SDS011;68277;52.724;6.516;2023-02-28T22:30:38;708.60;;;673.75;;
78670;SDS011;68277;52.724;6.516;2023-02-28T22:33:08;727.58;;;692.60;;
78670;SDS011;68277;52.724;6.516;2023-02-28T22:35:36;678.35;;;644.80;;
78670;SDS011;68277;52.724;6.516;2023-02-28T22:38:03;721.58;;;686.67;;
78670;SDS011;68277;52.724;6.516;2023-02-28T22:40:29;707.95;;;673.30;;
78670;SDS011;68277;52.724;6.516;2023-02-28T22:42:54;726.67;;;691.75;;
78670;SDS011;68277;52.724;6.516;2023-02-28T22:45:20;695.65;;;661.30;;
78670;SDS011;68277;52.724;6.516;2023-02-28T22:47:47;669.65;;;636.30;;
78670;SDS011;68277;52.724;6.516;2023-02-28T22:50:13;711.40;;;676.75;;
78670;SDS011;68277;52.724;6.516;2023-02-28T22:52:39;687.28;;;653.78;;
78670;SDS011;68277;52.724;6.516;2023-02-28T22:55:05;666.22;;;633.03;;
78670;SDS011;68277;52.724;6.516;2023-02-28T22:57:32;726.83;;;688.75;;
78670;SDS011;68277;52.724;6.516;2023-02-28T22:59:58;700.47;;;666.35;;
78670;SDS011;68277;52.724;6.516;2023-02-28T23:02:23;710.42;;;675.20;;
78670;SDS011;68277;52.724;6.516;2023-02-28T23:04:49;677.90;;;644.33;;
78670;SDS011;68277;52.724;6.516;2023-02-28T23:07:14;669.75;;;636.72;;
78670;SDS011;68277;52.724;6.516;2023-02-28T23:09:40;712.10;;;677.67;;
78670;SDS011;68277;52.724;6.516;2023-02-28T23:12:05;689.60;;;656.17;;
78670;SDS011;68277;52.724;6.516;2023-02-28T23:14:31;710.08;;;675.80;;
78670;SDS011;68277;52.724;6.516;2023-02-28T23:16:56;687.33;;;653.65;;
78670;SDS011;68277;52.724;6.516;2023-02-28T23:19:29;690.20;;;656.25;;
78670;SDS011;68277;52.724;6.516;2023-02-28T23:21:56;660.28;;;627.83;;
78670;SDS011;68277;52.724;6.516;2023-02-28T23:24:23;712.80;;;678.78;;
78670;SDS011;68277;52.724;6.516;2023-02-28T23:26:52;688.03;;;654.53;;
78670;SDS011;68277;52.724;6.516;2023-02-28T23:29:19;700.03;;;666.30;;
78670;SDS011;68277;52.724;6.516;2023-02-28T23:31:46;682.38;;;649.05;;
78670;SDS011;68277;52.724;6.516;2023-02-28T23:34:12;657.65;;;625.05;;
78670;SDS011;68277;52.724;6.516;2023-02-28T23:36:38;709.38;;;675.42;;
78670;SDS011;68277;52.724;6.516;2023-02-28T23:39:10;682.40;;;646.53;;
78670;SDS011;68277;52.724;6.516;2023-02-28T23:41:37;681.85;;;648.90;;
78670;SDS011;68277;52.724;6.516;2023-02-28T23:44:02;703.75;;;669.85;;
78670;SDS011;68277;52.724;6.516;2023-02-28T23:46:28;673.05;;;640.30;;
78670;SDS011;68277;52.724;6.516;2023-02-28T23:48:53;676.13;;;642.67;;
78670;SDS011;68277;52.724;6.516;2023-02-28T23:51:19;691.33;;;658.50;;
78670;SDS011;68277;52.724;6.516;2023-02-28T23:53:46;706.33;;;672.60;;
78670;SDS011;68277;52.724;6.516;2023-02-28T23:56:15;690.72;;;655.28;;
78670;SDS011;68277;52.724;6.516;2023-02-28T23:58:45;696.13;;;662.83;;
